Time;durP1;ratioP1;P1;durP2;ratioP2;P2;SDS_P1;SDS_P2;PMS_P1;PMS_P2;Temp;Humidity;BMP_temperature;BMP_pressure;BME280_temperature;BME280_humidity;BME280_pressure;Samples;Min_cycle;Max_cycle;Signal;HPM_P1;HPM_P2
2023/03/17 00:00:14;;;;;;;;;;;3.00;99.90;;;;;;5049636;28;19925;-93
2023/03/17 00:02:41;;;;;;;;;;;3.00;99.90;;;;;;5049939;28;19988;-93
2023/03/17 00:05:14;;;;;;;;;;;2.90;99.90;;;;;;5049880;28;19921;-93
2023/03/17 00:07:41;;;;;;;;;;;2.90;99.90;;;;;;5043590;28;19953;-93
2023/03/17 00:10:11;;;;;;;;;;;2.90;99.90;;;;;;5031486;28;19985;-94
2023/03/17 00:12:37;;;;;;;;;;;2.80;99.90;;;;;;5049606;28;19921;-93
2023/03/17 00:15:05;;;;;;;;;;;2.80;99.90;;;;;;5041300;28;19997;-93
2023/03/17 00:17:33;;;;;;;;;;;2.70;99.90;;;;;;5042915;28;19923;-94
2023/03/17 00:20:00;;;;;;;;;;;2.70;99.90;;;;;;5031293;28;19945;-94
2023/03/17 00:22:26;;;;;;;;;;;2.80;99.90;;;;;;5049377;28;19943;-94
2023/03/17 00:24:54;;;;;;;;;;;2.70;99.90;;;;;;5049278;28;19928;-94
2023/03/17 00:27:20;;;;;;;;;;;2.70;99.90;;;;;;5046459;28;19921;-94
2023/03/17 00:29:47;;;;;;;;;;;2.70;99.90;;;;;;5037421;28;19967;-93
2023/03/17 00:32:16;;;;;;;;;;;2.60;99.90;;;;;;5029066;28;19968;-94
2023/03/17 00:34:59;;;;;;;;;;;2.60;99.90;;;;;;5121532;27;19936;-69
2023/03/17 00:37:26;;;;;;;;;;;2.70;99.90;;;;;;5121268;28;19947;-70
2023/03/17 00:39:52;;;;;;;;;;;2.60;99.90;;;;;;5121562;28;19989;-70
2023/03/17 00:42:19;;;;;;;;;;;2.60;99.90;;;;;;5117461;28;20226;-70
2023/03/17 00:44:46;;;;;;;;;;;2.60;99.90;;;;;;5121068;28;20204;-70
2023/03/17 00:47:12;;;;;;;;;;;2.60;99.90;;;;;;5121029;28;19926;-70
2023/03/17 00:49:39;;;;;;;;;;;2.50;99.90;;;;;;5103136;28;20007;-70
2023/03/17 00:52:08;;;;;;;;;;;2.60;99.90;;;;;;5100433;28;19927;-71
2023/03/17 00:54:35;;;;;;;;;;;2.50;99.90;;;;;;5100186;28;19926;-70
2023/03/17 00:57:02;;;;;;;;;;;2.50;99.90;;;;;;5102842;28;19927;-71
2023/03/17 00:59:29;;;;;;;;;;;2.50;99.90;;;;;;5120563;28;20194;-71
2023/03/17 01:01:58;;;;;;;;;;;2.50;99.90;;;;;;5102372;28;19927;-71
2023/03/17 01:04:25;;;;;;;;;;;2.40;99.90;;;;;;5100786;28;19955;-69
2023/03/17 01:06:52;;;;;;;;;;;2.40;99.90;;;;;;5100362;28;19991;-71
2023/03/17 01:09:20;;;;;;;;;;;2.40;99.90;;;;;;5100321;28;19920;-71
2023/03/17 01:11:47;;;;;;;;;;;2.40;99.90;;;;;;5105108;28;19920;-71
2023/03/17 01:14:14;;;;;;;;;;;2.40;99.90;;;;;;5118584;28;19957;-71
2023/03/17 01:16:40;;;;;;;;;;;2.40;99.90;;;;;;5118475;28;19966;-70
2023/03/17 01:19:07;;;;;;;;;;;2.40;99.90;;;;;;5100378;28;19987;-71
2023/03/17 01:21:34;;;;;;;;;;;2.40;99.90;;;;;;5100266;28;19920;-70
2023/03/17 01:24:01;;;;;;;;;;;2.40;99.90;;;;;;5100589;28;19928;-71
2023/03/17 01:26:29;;;;;;;;;;;2.40;99.90;;;;;;5099630;28;19920;-71
2023/03/17 01:28:56;;;;;;;;;;;2.30;99.90;;;;;;5115928;28;20164;-70
2023/03/17 01:31:23;;;;;;;;;;;2.30;99.90;;;;;;5108758;28;19952;-70
2023/03/17 01:33:50;;;;;;;;;;;2.30;99.90;;;;;;5111323;28;19951;-70
2023/03/17 01:36:16;;;;;;;;;;;2.30;99.90;;;;;;5133053;28;19926;-71
2023/03/17 01:38:43;;;;;;;;;;;2.30;99.90;;;;;;5140536;28;19962;-71
2023/03/17 01:41:11;;;;;;;;;;;2.30;99.90;;;;;;5140912;28;19991;-71
2023/03/17 01:43:39;;;;;;;;;;;2.30;99.90;;;;;;5140543;28;19979;-71
2023/03/17 01:46:24;;;;;;;;;;;2.30;99.90;;;;;;5115722;28;19962;-71
2023/03/17 01:48:58;;;;;;;;;;;2.20;99.90;;;;;;5106670;28;19970;-70
2023/03/17 01:51:28;;;;;;;;;;;2.20;99.90;;;;;;5106633;28;19920;-70
2023/03/17 01:53:55;;;;;;;;;;;2.20;99.90;;;;;;5111581;28;19986;-70
2023/03/17 01:56:22;;;;;;;;;;;2.20;99.90;;;;;;5105802;28;19927;-71
2023/03/17 01:58:51;;;;;;;;;;;3.10;99.90;;;;;;5105910;28;19983;-69
2023/03/17 02:01:19;;;;;;;;;;;2.20;99.90;;;;;;5106444;28;19961;-71
2023/03/17 02:03:46;;;;;;;;;;;2.20;99.90;;;;;;5110379;28;20153;-71
2023/03/17 02:06:13;;;;;;;;;;;2.20;99.90;;;;;;5106318;28;19920;-71
2023/03/17 02:08:40;;;;;;;;;;;2.20;99.90;;;;;;5117228;28;20114;-71
2023/03/17 02:11:07;;;;;;;;;;;2.20;99.90;;;;;;5126530;28;20257;-71
2023/03/17 02:13:34;;;;;;;;;;;2.20;99.90;;;;;;5126706;28;19919;-70
2023/03/17 02:16:02;;;;;;;;;;;2.90;99.90;;;;;;5126093;28;19955;-70
2023/03/17 02:18:29;;;;;;;;;;;2.20;99.90;;;;;;5115888;28;19943;-69
2023/03/17 02:21:14;;;;;;;;;;;2.20;99.90;;;;;;5121348;28;19983;-70
2023/03/17 02:23:42;;;;;;;;;;;2.20;99.90;;;;;;5106803;28;19921;-70
2023/03/17 02:26:09;;;;;;;;;;;2.10;99.90;;;;;;5120183;28;20356;-70
2023/03/17 02:28:35;;;;;;;;;;;2.10;99.90;;;;;;5126232;28;19951;-69
2023/03/17 02:31:03;;;;;;;;;;;2.10;99.90;;;;;;5125933;28;19954;-69
2023/03/17 02:33:30;;;;;;;;;;;2.10;99.90;;;;;;5125348;28;19920;-70
2023/03/17 02:35:57;;;;;;;;;;;2.20;99.90;;;;;;5126072;28;19999;-70
2023/03/17 02:38:23;;;;;;;;;;;2.20;99.90;;;;;;5125795;28;20095;-69
2023/03/17 02:40:51;;;;;;;;;;;2.20;99.90;;;;;;5125925;28;19987;-70
2023/03/17 02:43:18;;;;;;;;;;;2.10;99.90;;;;;;5125955;28;20257;-70
2023/03/17 02:45:45;;;;;;;;;;;2.10;99.90;;;;;;5125575;28;19920;-69
2023/03/17 02:48:11;;;;;;;;;;;2.10;99.90;;;;;;5114378;28;20289;-70
2023/03/17 02:50:38;;;;;;;;;;;2.10;99.90;;;;;;5125835;28;19927;-69
2023/03/17 02:53:06;;;;;;;;;;;2.20;99.90;;;;;;5125800;28;19919;-69
2023/03/17 02:55:33;;;;;;;;;;;2.20;99.90;;;;;;5112801;28;19920;-70
2023/03/17 02:58:02;;;;;;;;;;;2.70;99.90;;;;;;5103951;28;19951;-70
2023/03/17 03:00:29;;;;;;;;;;;2.20;99.90;;;;;;5105293;28;19983;-70
2023/03/17 03:02:56;;;;;;;;;;;2.30;99.90;;;;;;5105265;28;19921;-70
2023/03/17 03:05:22;;;;;;;;;;;2.30;99.90;;;;;;5105135;28;19920;-70
2023/03/17 03:07:50;;;;;;;;;;;2.30;99.90;;;;;;5104707;28;19935;-70
2023/03/17 03:10:17;;;;;;;;;;;2.30;99.90;;;;;;5104937;28;20254;-69
2023/03/17 03:12:44;;;;;;;;;;;2.30;99.90;;;;;;5104674;28;20208;-70
2023/03/17 03:15:13;;;;;;;;;;;2.30;99.90;;;;;;5104664;28;19978;-69
2023/03/17 03:17:40;;;;;;;;;;;2.20;99.90;;;;;;5104761;28;20207;-70
2023/03/17 03:20:09;;;;;;;;;;;2.20;99.90;;;;;;5104732;28;19942;-70
2023/03/17 03:22:36;;;;;;;;;;;2.20;99.90;;;;;;5104805;28;19927;-70
2023/03/17 03:25:03;;;;;;;;;;;2.10;99.90;;;;;;5104719;28;19991;-70
2023/03/17 03:27:31;;;;;;;;;;;3.20;99.90;;;;;;5104245;28;19951;-70
2023/03/17 03:29:57;;;;;;;;;;;2.10;99.90;;;;;;5104623;28;19920;-70
2023/03/17 03:32:26;;;;;;;;;;;2.00;99.90;;;;;;5104922;28;19992;-70
2023/03/17 03:34:53;;;;;;;;;;;2.20;99.90;;;;;;5103855;28;19955;-70
2023/03/17 03:37:19;;;;;;;;;;;2.20;99.90;;;;;;5104140;28;19920;-70
2023/03/17 03:39:46;;;;;;;;;;;2.30;99.90;;;;;;5104530;28;19920;-70
2023/03/17 03:42:13;;;;;;;;;;;2.10;99.90;;;;;;5104317;28;19927;-69
2023/03/17 03:44:39;;;;;;;;;;;2.60;99.90;;;;;;5104417;28;19959;-69
2023/03/17 03:47:06;;;;;;;;;;;2.20;99.90;;;;;;5104633;28;19951;-69
2023/03/17 03:49:35;;;;;;;;;;;2.20;99.90;;;;;;5123279;28;19920;-69
2023/03/17 03:52:02;;;;;;;;;;;2.20;99.90;;;;;;5124712;28;20017;-69
2023/03/17 03:54:28;;;;;;;;;;;2.20;99.90;;;;;;5118035;28;19926;-70
2023/03/17 03:56:55;;;;;;;;;;;2.20;99.90;;;;;;5103767;28;20111;-70
2023/03/17 03:59:21;;;;;;;;;;;2.10;99.90;;;;;;5115050;28;20211;-70
2023/03/17 04:01:48;;;;;;;;;;;2.20;99.90;;;;;;5119401;28;19988;-70
2023/03/17 04:04:15;;;;;;;;;;;2.20;99.90;;;;;;5103607;28;19987;-69
2023/03/17 04:06:43;;;;;;;;;;;2.20;99.90;;;;;;5103632;28;19920;-69
2023/03/17 04:09:09;;;;;;;;;;;2.10;99.90;;;;;;5103642;28;19959;-70
2023/03/17 04:11:36;;;;;;;;;;;2.10;99.90;;;;;;5103446;28;19920;-69
2023/03/17 04:14:03;;;;;;;;;;;2.10;99.90;;;;;;5103713;28;20190;-69
2023/03/17 04:16:29;;;;;;;;;;;2.10;99.90;;;;;;5103096;28;20236;-69
2023/03/17 04:18:56;;;;;;;;;;;2.10;99.90;;;;;;5103784;28;19987;-70
2023/03/17 04:21:22;;;;;;;;;;;2.20;99.90;;;;;;5103895;28;19951;-70
2023/03/17 04:23:50;;;;;;;;;;;2.10;99.90;;;;;;5104065;28;20158;-70
2023/03/17 04:26:17;;;;;;;;;;;2.10;99.90;;;;;;5103515;28;19920;-70
2023/03/17 04:28:44;;;;;;;;;;;2.10;99.90;;;;;;5103790;28;19950;-70
2023/03/17 04:31:11;;;;;;;;;;;2.00;99.90;;;;;;5103743;28;19926;-69
2023/03/17 04:33:38;;;;;;;;;;;2.10;99.90;;;;;;5103672;28;19975;-70
2023/03/17 04:36:06;;;;;;;;;;;2.10;99.90;;;;;;5103354;28;19926;-70
2023/03/17 04:38:33;;;;;;;;;;;2.10;99.90;;;;;;5103417;28;19920;-69
2023/03/17 04:41:01;;;;;;;;;;;2.10;99.90;;;;;;5103411;28;19980;-70
2023/03/17 04:43:27;;;;;;;;;;;2.00;99.90;;;;;;5103334;28;19928;-70
2023/03/17 04:45:54;;;;;;;;;;;2.10;99.90;;;;;;5103208;28;19951;-70
2023/03/17 04:48:21;;;;;;;;;;;2.00;99.90;;;;;;5107811;28;19956;-71
2023/03/17 04:50:47;;;;;;;;;;;2.00;99.90;;;;;;5123869;28;19995;-70
2023/03/17 04:53:14;;;;;;;;;;;2.00;99.90;;;;;;5123570;28;19982;-71
2023/03/17 04:55:41;;;;;;;;;;;2.00;99.90;;;;;;5120323;28;19956;-71
2023/03/17 04:58:08;;;;;;;;;;;2.00;99.90;;;;;;5113439;28;19991;-71
2023/03/17 05:00:37;;;;;;;;;;;2.00;99.90;;;;;;5123566;28;19920;-71
2023/03/17 05:03:05;;;;;;;;;;;2.00;99.90;;;;;;5123451;28;19984;-70
2023/03/17 05:05:31;;;;;;;;;;;1.90;99.90;;;;;;5123764;28;20009;-71
2023/03/17 05:07:58;;;;;;;;;;;1.90;99.90;;;;;;5123237;28;19962;-70
2023/03/17 05:10:25;;;;;;;;;;;1.90;99.90;;;;;;5123716;28;19982;-71
2023/03/17 05:12:52;;;;;;;;;;;1.90;99.90;;;;;;5123526;28;19962;-70
2023/03/17 05:15:20;;;;;;;;;;;1.90;99.90;;;;;;5123746;28;19995;-70
2023/03/17 05:17:47;;;;;;;;;;;1.90;99.90;;;;;;5123367;28;19928;-70
2023/03/17 05:20:14;;;;;;;;;;;1.80;99.90;;;;;;5124862;28;19962;-71
2023/03/17 05:22:41;;;;;;;;;;;1.90;99.90;;;;;;5127259;28;19991;-70
2023/03/17 05:25:08;;;;;;;;;;;1.80;99.90;;;;;;5127232;28;19990;-70
2023/03/17 05:27:34;;;;;;;;;;;1.80;99.90;;;;;;5126904;28;19919;-68
2023/03/17 05:30:02;;;;;;;;;;;1.80;99.90;;;;;;5127549;28;20115;-71
2023/03/17 05:32:30;;;;;;;;;;;1.80;99.90;;;;;;5127130;28;19920;-71
2023/03/17 05:34:57;;;;;;;;;;;1.80;99.90;;;;;;5127184;28;19924;-70
2023/03/17 05:37:24;;;;;;;;;;;1.80;99.90;;;;;;5126534;28;19983;-70
2023/03/17 05:39:52;;;;;;;;;;;1.80;99.90;;;;;;5127108;28;19982;-70
2023/03/17 05:42:19;;;;;;;;;;;1.80;99.90;;;;;;5124185;28;19919;-70
2023/03/17 05:44:46;;;;;;;;;;;1.80;99.90;;;;;;5106713;28;19927;-70
2023/03/17 05:47:12;;;;;;;;;;;1.70;99.90;;;;;;5116187;28;20178;-69
2023/03/17 05:49:40;;;;;;;;;;;1.70;99.90;;;;;;5127266;28;19982;-69
2023/03/17 05:52:07;;;;;;;;;;;1.80;99.90;;;;;;5126284;28;19955;-69
2023/03/17 05:54:34;;;;;;;;;;;1.70;99.90;;;;;;5126324;28;19942;-70
2023/03/17 05:57:00;;;;;;;;;;;1.70;99.90;;;;;;5106620;28;19987;-69
2023/03/17 05:59:27;;;;;;;;;;;1.60;99.90;;;;;;5106449;28;20153;-69
2023/03/17 06:01:54;;;;;;;;;;;1.70;99.90;;;;;;5117395;28;19927;-70
2023/03/17 06:04:21;;;;;;;;;;;1.60;99.90;;;;;;5126794;28;19920;-69
2023/03/17 06:06:49;;;;;;;;;;;1.60;99.90;;;;;;5125778;28;19981;-70
2023/03/17 06:09:16;;;;;;;;;;;1.60;99.90;;;;;;5126906;28;19920;-70
2023/03/17 06:11:43;;;;;;;;;;;1.60;99.90;;;;;;5126809;28;20211;-70
2023/03/17 06:14:10;;;;;;;;;;;1.60;99.90;;;;;;5125460;28;19919;-70
2023/03/17 06:16:43;;;;;;;;;;;1.50;99.90;;;;;;5105371;28;19996;-70
2023/03/17 06:19:10;;;;;;;;;;;1.50;99.90;;;;;;5106147;28;19983;-70
2023/03/17 06:21:37;;;;;;;;;;;1.50;99.90;;;;;;5105533;28;20172;-69
2023/03/17 06:24:05;;;;;;;;;;;1.50;99.90;;;;;;5105964;28;19977;-72
2023/03/17 06:26:32;;;;;;;;;;;1.50;99.90;;;;;;5105706;28;19955;-70
2023/03/17 06:29:00;;;;;;;;;;;1.50;99.90;;;;;;5106289;28;20261;-71
2023/03/17 06:31:27;;;;;;;;;;;1.60;99.90;;;;;;5126142;28;19962;-70
2023/03/17 06:33:53;;;;;;;;;;;1.70;99.90;;;;;;5125857;28;19955;-69
2023/03/17 06:36:20;;;;;;;;;;;1.60;99.90;;;;;;5124934;28;20430;-71
2023/03/17 06:38:47;;;;;;;;;;;1.70;99.90;;;;;;5126330;28;20129;-70
2023/03/17 06:41:15;;;;;;;;;;;1.70;99.90;;;;;;5126066;28;19959;-70
2023/03/17 06:43:41;;;;;;;;;;;1.70;99.90;;;;;;5125936;28;19958;-70
2023/03/17 06:46:08;;;;;;;;;;;1.80;99.90;;;;;;5125677;28;19983;-71
2023/03/17 06:48:35;;;;;;;;;;;1.70;99.90;;;;;;5125656;28;19961;-69
2023/03/17 06:51:02;;;;;;;;;;;1.80;99.90;;;;;;5125035;28;19926;-70
2023/03/17 06:53:28;;;;;;;;;;;1.90;99.90;;;;;;5126099;28;19982;-71
2023/03/17 06:55:55;;;;;;;;;;;2.00;99.90;;;;;;5114950;28;19962;-70
2023/03/17 06:58:24;;;;;;;;;;;2.00;99.90;;;;;;5124813;28;19955;-71
2023/03/17 07:00:52;;;;;;;;;;;2.10;99.90;;;;;;5108472;28;20115;-70
2023/03/17 07:03:20;;;;;;;;;;;2.20;99.90;;;;;;5105838;28;19920;-68
2023/03/17 07:05:47;;;;;;;;;;;2.30;99.90;;;;;;5125343;28;19962;-70
2023/03/17 07:08:14;;;;;;;;;;;2.30;99.90;;;;;;5125272;28;19920;-70
2023/03/17 07:10:41;;;;;;;;;;;2.30;99.90;;;;;;5125485;28;19920;-70
2023/03/17 07:13:09;;;;;;;;;;;2.40;99.90;;;;;;5125322;28;19920;-70
2023/03/17 07:15:37;;;;;;;;;;;2.40;99.90;;;;;;5125146;28;19920;-69
2023/03/17 07:18:05;;;;;;;;;;;2.50;99.90;;;;;;5124997;28;19987;-68
2023/03/17 07:20:32;;;;;;;;;;;2.60;99.90;;;;;;5117186;28;19920;-69
2023/03/17 07:22:58;;;;;;;;;;;2.70;99.90;;;;;;5105163;28;19927;-70
2023/03/17 07:25:25;;;;;;;;;;;2.80;99.90;;;;;;5104709;28;20226;-70
2023/03/17 07:27:51;;;;;;;;;;;2.90;99.90;;;;;;5104592;28;19996;-70
2023/03/17 07:30:18;;;;;;;;;;;3.00;99.90;;;;;;5113459;28;19952;-70
2023/03/17 07:32:46;;;;;;;;;;;3.10;99.90;;;;;;5120696;28;19920;-70
2023/03/17 07:35:14;;;;;;;;;;;3.20;99.90;;;;;;5119582;28;19919;-69
2023/03/17 07:37:40;;;;;;;;;;;3.30;99.90;;;;;;5106851;28;19920;-70
2023/03/17 07:40:08;;;;;;;;;;;3.50;99.90;;;;;;5104838;28;19999;-70
2023/03/17 07:42:34;;;;;;;;;;;3.70;99.90;;;;;;5104271;28;19920;-70
2023/03/17 07:45:01;;;;;;;;;;;3.70;99.90;;;;;;5104341;28;19920;-70
2023/03/17 07:47:28;;;;;;;;;;;3.90;99.90;;;;;;5104199;28;19927;-70
2023/03/17 07:49:56;;;;;;;;;;;4.00;99.90;;;;;;5104406;28;19974;-69
2023/03/17 07:52:22;;;;;;;;;;;4.10;99.90;;;;;;5103742;28;19926;-69
2023/03/17 07:54:50;;;;;;;;;;;4.20;99.90;;;;;;5105666;28;19920;-70
2023/03/17 07:57:17;;;;;;;;;;;4.30;99.90;;;;;;5124361;28;19920;-70
2023/03/17 07:59:44;;;;;;;;;;;4.40;99.90;;;;;;5109366;28;19942;-70
2023/03/17 08:02:14;;;;;;;;;;;4.50;99.90;;;;;;5104208;28;19955;-69
2023/03/17 08:04:41;;;;;;;;;;;4.50;99.90;;;;;;5113342;28;19924;-69
2023/03/17 08:07:09;;;;;;;;;;;4.60;99.90;;;;;;5123971;28;20223;-70
2023/03/17 08:09:36;;;;;;;;;;;4.80;99.90;;;;;;5124410;28;19957;-70
2023/03/17 08:12:03;;;;;;;;;;;4.80;99.90;;;;;;5124233;28;19927;-70
2023/03/17 08:14:29;;;;;;;;;;;4.80;99.90;;;;;;5124030;28;20024;-70
2023/03/17 08:16:56;;;;;;;;;;;4.90;99.90;;;;;;5124119;28;19997;-70
2023/03/17 08:19:23;;;;;;;;;;;4.90;99.90;;;;;;5124152;28;19939;-70
2023/03/17 08:21:50;;;;;;;;;;;4.90;99.90;;;;;;5124237;28;19920;-69
2023/03/17 08:24:18;;;;;;;;;;;5.00;99.90;;;;;;5124560;28;20157;-70
2023/03/17 08:26:47;;;;;;;;;;;5.10;99.90;;;;;;5123806;28;19981;-70
2023/03/17 08:29:14;;;;;;;;;;;5.20;99.90;;;;;;5115961;28;19920;-69
2023/03/17 08:31:40;;;;;;;;;;;5.20;99.90;;;;;;5104103;28;19948;-70
2023/03/17 08:34:07;;;;;;;;;;;5.20;99.90;;;;;;5113777;28;19920;-70
2023/03/17 08:36:34;;;;;;;;;;;5.20;99.90;;;;;;5123604;28;19920;-70
2023/03/17 08:39:01;;;;;;;;;;;5.40;99.90;;;;;;5124004;28;19961;-70
2023/03/17 08:41:29;;;;;;;;;;;5.50;99.90;;;;;;5123760;28;20152;-69
2023/03/17 08:43:57;;;;;;;;;;;5.60;99.90;;;;;;5124023;28;19955;-70
2023/03/17 08:46:25;;;;;;;;;;;5.60;99.90;;;;;;5117932;28;19955;-70
2023/03/17 08:48:53;;;;;;;;;;;5.70;99.90;;;;;;5123828;28;20114;-70
2023/03/17 08:51:21;;;;;;;;;;;5.70;99.90;;;;;;5123938;28;19920;-69
2023/03/17 08:53:48;;;;;;;;;;;5.70;99.90;;;;;;5103472;28;19920;-69
2023/03/17 08:56:15;;;;;;;;;;;5.80;99.90;;;;;;5116347;28;19987;-70
2023/03/17 08:58:43;;;;;;;;;;;6.00;99.90;;;;;;5117782;28;19976;-71
2023/03/17 09:01:10;;;;;;;;;;;6.10;99.90;;;;;;5126905;28;19983;-70
2023/03/17 09:03:39;;;;;;;;;;;6.10;99.90;;;;;;5128041;28;19919;-70
2023/03/17 09:06:06;;;;;;;;;;;6.20;99.90;;;;;;5127377;28;19943;-70
2023/03/17 09:08:33;;;;;;;;;;;6.40;99.90;;;;;;5127430;28;19973;-70
2023/03/17 09:11:00;;;;;;;;;;;6.50;99.90;;;;;;5127786;28;19919;-71
2023/03/17 09:13:27;;;;;;;;;;;6.50;99.90;;;;;;5123863;28;19983;-70
2023/03/17 09:15:55;;;;;;;;;;;6.60;99.90;;;;;;5127530;28;19935;-71
2023/03/17 09:18:21;;;;;;;;;;;6.70;99.90;;;;;;5127720;28;19920;-71
2023/03/17 09:20:48;;;;;;;;;;;6.80;99.90;;;;;;5119357;28;19920;-71
2023/03/17 09:23:15;;;;;;;;;;;6.90;99.90;;;;;;5107447;28;19920;-70
2023/03/17 09:25:42;;;;;;;;;;;6.90;99.90;;;;;;5107194;28;20212;-69
2023/03/17 09:28:10;;;;;;;;;;;7.00;99.90;;;;;;5107073;28;19924;-71
2023/03/17 09:30:37;;;;;;;;;;;7.20;99.90;;;;;;5107282;28;19920;-71
2023/03/17 09:33:05;;;;;;;;;;;7.20;99.90;;;;;;5106966;28;19938;-70
2023/03/17 09:35:32;;;;;;;;;;;7.30;99.90;;;;;;5112501;28;19930;-70
2023/03/17 09:37:58;;;;;;;;;;;7.40;99.90;;;;;;5126589;28;20114;-70
2023/03/17 09:40:31;;;;;;;;;;;7.60;99.90;;;;;;5127557;28;19919;-70
2023/03/17 09:43:00;;;;;;;;;;;7.70;99.90;;;;;;5127336;27;19928;-69
2023/03/17 09:45:30;;;;;;;;;;;7.90;99.90;;;;;;5127419;28;19983;-71
2023/03/17 09:48:11;;;;;;;;;;;8.00;99.90;;;;;;5126932;28;20268;-70
2023/03/17 09:50:44;;;;;;;;;;;8.10;99.90;;;;;;5124702;28;19979;-70
2023/03/17 09:53:15;;;;;;;;;;;8.20;99.90;;;;;;5126981;28;19923;-70
2023/03/17 09:55:42;;;;;;;;;;;8.40;99.90;;;;;;5120577;28;19951;-71
2023/03/17 09:58:09;;;;;;;;;;;8.50;99.90;;;;;;5107509;28;20208;-71
2023/03/17 10:00:36;;;;;;;;;;;8.60;99.90;;;;;;5111594;28;19920;-70
2023/03/17 10:03:03;;;;;;;;;;;8.70;99.90;;;;;;5106335;28;19951;-71
2023/03/17 10:05:37;;;;;;;;;;;8.80;99.90;;;;;;5113005;28;19919;-70
2023/03/17 10:08:06;;;;;;;;;;;8.90;99.90;;;;;;5105693;28;19920;-70
2023/03/17 10:10:37;;;;;;;;;;;9.10;99.90;;;;;;5106620;28;19936;-70
2023/03/17 10:13:07;;;;;;;;;;;9.20;99.90;;;;;;5106173;28;19920;-71
2023/03/17 10:15:37;;;;;;;;;;;9.30;99.90;;;;;;5117658;28;19921;-70
2023/03/17 10:18:09;;;;;;;;;;;9.40;99.90;;;;;;5105741;28;19965;-72
2023/03/17 10:20:38;;;;;;;;;;;9.60;99.90;;;;;;5106188;28;20111;-70
2023/03/17 10:23:07;;;;;;;;;;;9.70;99.90;;;;;;5106141;28;19927;-70
2023/03/17 10:25:34;;;;;;;;;;;9.80;99.90;;;;;;5105622;28;20208;-70
2023/03/17 10:28:02;;;;;;;;;;;10.10;99.90;;;;;;5117824;28;19920;-70
2023/03/17 10:30:32;;;;;;;;;;;10.20;99.90;;;;;;5124568;28;20203;-71
2023/03/17 10:32:59;;;;;;;;;;;10.40;99.90;;;;;;5124240;28;19971;-71
2023/03/17 10:35:26;;;;;;;;;;;10.60;99.90;;;;;;5110838;28;19955;-71
2023/03/17 10:37:54;;;;;;;;;;;10.80;99.90;;;;;;5117843;28;19920;-71
2023/03/17 10:40:23;;;;;;;;;;;11.00;99.90;;;;;;5123451;28;19920;-70
2023/03/17 10:42:52;;;;;;;;;;;11.20;99.90;;;;;;5106093;28;19920;-71
2023/03/17 10:45:24;;;;;;;;;;;11.50;99.90;;;;;;5105235;28;19927;-71
2023/03/17 10:47:51;;;;;;;;;;;11.60;99.90;;;;;;5105664;28;19920;-71
2023/03/17 10:50:27;;;;;;;;;;;11.80;99.90;;;;;;5105449;28;19944;-71
2023/03/17 10:52:57;;;;;;;;;;;12.00;99.90;;;;;;5115552;28;19991;-71
2023/03/17 10:55:28;;;;;;;;;;;12.20;99.90;;;;;;5109621;28;19920;-72
2023/03/17 10:57:57;;;;;;;;;;;12.30;99.90;;;;;;5104185;28;19995;-71
2023/03/17 11:00:28;;;;;;;;;;;12.50;99.90;;;;;;5105386;28;19920;-71
2023/03/17 11:02:56;;;;;;;;;;;12.70;99.90;;;;;;5123290;28;19920;-72
2023/03/17 11:05:23;;;;;;;;;;;12.90;99.90;;;;;;5125726;28;19961;-71
2023/03/17 11:07:56;;;;;;;;;;;13.10;99.90;;;;;;5123329;28;19920;-71
2023/03/17 11:10:25;;;;;;;;;;;13.20;99.90;;;;;;5109972;28;19988;-72
2023/03/17 11:12:57;;;;;;;;;;;13.40;99.90;;;;;;5105653;28;19974;-72
2023/03/17 11:15:28;;;;;;;;;;;13.60;99.90;;;;;;5114150;28;20270;-72
2023/03/17 11:17:57;;;;;;;;;;;13.60;99.90;;;;;;5116458;28;19926;-71
2023/03/17 11:20:31;;;;;;;;;;;13.80;99.90;;;;;;5114335;28;20268;-70
2023/03/17 11:23:02;;;;;;;;;;;13.90;99.90;;;;;;5118921;28;19919;-71
2023/03/17 11:25:31;;;;;;;;;;;14.10;99.90;;;;;;5116380;28;20215;-71
2023/03/17 11:28:03;;;;;;;;;;;14.20;99.90;;;;;;5103488;28;19966;-71
2023/03/17 11:30:34;;;;;;;;;;;14.40;99.90;;;;;;5109539;28;20002;-72
2023/03/17 11:33:05;;;;;;;;;;;14.60;99.90;;;;;;5122044;28;20256;-71
2023/03/17 11:35:40;;;;;;;;;;;14.60;99.90;;;;;;5124343;27;20100;-70
2023/03/17 11:38:30;;;;;;;;;;;14.80;99.90;;;;;;5123346;28;19926;-71
2023/03/17 11:41:16;;;;;;;;;;;14.90;99.90;;;;;;5109535;28;19999;-70
2023/03/17 11:43:52;;;;;;;;;;;15.20;99.90;;;;;;5121810;28;19920;-72
2023/03/17 11:46:23;;;;;;;;;;;15.30;99.90;;;;;;5120919;28;19920;-72
2023/03/17 11:48:55;;;;;;;;;;;15.50;99.90;;;;;;5110378;28;19987;-72
2023/03/17 11:51:26;;;;;;;;;;;15.60;99.90;;;;;;5106618;28;19924;-70
2023/03/17 11:54:00;;;;;;;;;;;15.70;99.90;;;;;;5105297;28;19921;-72
2023/03/17 11:56:31;;;;;;;;;;;15.80;99.90;;;;;;5116205;28;19923;-72
2023/03/17 11:59:01;;;;;;;;;;;15.90;99.90;;;;;;5116731;28;20048;-70
2023/03/17 12:01:32;;;;;;;;;;;16.10;99.90;;;;;;5114832;28;19951;-72
2023/03/17 12:04:02;;;;;;;;;;;16.30;99.90;;;;;;5115648;28;19996;-71
2023/03/17 12:06:30;;;;;;;;;;;16.40;99.90;;;;;;5114798;28;19965;-72
2023/03/17 12:08:58;;;;;;;;;;;16.50;99.90;;;;;;5124385;28;19965;-71
2023/03/17 12:11:28;;;;;;;;;;;16.70;99.90;;;;;;5116426;28;19972;-71
2023/03/17 12:13:58;;;;;;;;;;;16.80;99.90;;;;;;5120980;28;19961;-73
2023/03/17 12:16:31;;;;;;;;;;;17.00;99.90;;;;;;5123302;28;21276;-70
2023/03/17 12:19:03;;;;;;;;;;;17.00;99.90;;;;;;5123948;28;19920;-70
2023/03/17 12:21:35;;;;;;;;;;;17.10;99.90;;;;;;5121448;28;20264;-71
2023/03/17 12:24:03;;;;;;;;;;;17.20;99.90;;;;;;5119185;28;19919;-70
2023/03/17 12:26:34;;;;;;;;;;;17.40;99.90;;;;;;5123656;28;19919;-71
2023/03/17 12:29:04;;;;;;;;;;;17.70;99.90;;;;;;5116347;28;19920;-70
2023/03/17 12:31:33;;;;;;;;;;;18.00;99.90;;;;;;5115549;28;20208;-70
2023/03/17 12:34:03;;;;;;;;;;;18.10;99.90;;;;;;5123213;28;19943;-71
2023/03/17 12:36:30;;;;;;;;;;;18.10;99.90;;;;;;5118740;28;19923;-71
2023/03/17 12:39:00;;;;;;;;;;;18.00;99.90;;;;;;5123832;28;20274;-71
2023/03/17 12:41:41;;;;;;;;;;;18.00;99.90;;;;;;5123254;28;19957;-70
2023/03/17 12:44:14;;;;;;;;;;;18.20;99.90;;;;;;5104057;28;19959;-70
2023/03/17 12:46:58;;;;;;;;;;;18.40;99.90;;;;;;5117941;28;19987;-70
2023/03/17 12:49:29;;;;;;;;;;;18.60;99.90;;;;;;5110319;28;19971;-70
2023/03/17 12:52:01;;;;;;;;;;;18.60;99.90;;;;;;5119397;28;19995;-70
2023/03/17 12:54:30;;;;;;;;;;;18.60;99.90;;;;;;5123446;28;20111;-70
2023/03/17 12:57:00;;;;;;;;;;;18.50;99.90;;;;;;5122546;28;19920;-70
2023/03/17 12:59:29;;;;;;;;;;;18.40;99.90;;;;;;5123400;28;19927;-70
2023/03/17 13:02:05;;;;;;;;;;;18.30;99.90;;;;;;5122386;28;19926;-69
2023/03/17 13:04:34;;;;;;;;;;;18.00;99.90;;;;;;5107381;28;19954;-70
2023/03/17 13:07:04;;;;;;;;;;;17.90;99.90;;;;;;5118209;28;19947;-70
2023/03/17 13:09:38;;;;;;;;;;;17.80;99.90;;;;;;5120404;28;19981;-71
2023/03/17 13:12:06;;;;;;;;;;;17.90;99.90;;;;;;5123479;28;19920;-70
2023/03/17 13:14:40;;;;;;;;;;;17.90;99.90;;;;;;5120783;28;19957;-70
2023/03/17 13:17:24;;;;;;;;;;;18.00;99.90;;;;;;5112987;28;19919;-71
2023/03/17 13:19:56;;;;;;;;;;;18.10;99.90;;;;;;5123527;28;19920;-70
2023/03/17 13:22:24;;;;;;;;;;;18.30;99.90;;;;;;5119099;28;20263;-71
2023/03/17 13:24:52;;;;;;;;;;;18.30;99.90;;;;;;5103195;28;19920;-71
2023/03/17 13:27:33;;;;;;;;;;;18.30;99.90;;;;;;5114247;28;19987;-71
2023/03/17 13:30:00;;;;;;;;;;;18.30;99.90;;;;;;5122975;28;19947;-71
2023/03/17 13:32:31;;;;;;;;;;;18.30;99.90;;;;;;5123370;28;20234;-69
2023/03/17 13:35:14;;;;;;;;;;;18.40;99.90;;;;;;5113466;28;19924;-70
2023/03/17 13:37:48;;;;;;;;;;;18.40;99.90;;;;;;5121949;28;19942;-69
2023/03/17 13:40:19;;;;;;;;;;;18.40;99.90;;;;;;5117427;28;19959;-72
2023/03/17 13:43:01;;;;;;;;;;;18.40;99.90;;;;;;5119781;28;19955;-71
2023/03/17 13:45:36;;;;;;;;;;;18.40;99.90;;;;;;5107199;28;19926;-70
2023/03/17 13:48:27;;;;;;;;;;;18.40;99.90;;;;;;5126594;28;19919;-72
2023/03/17 13:50:58;;;;;;;;;;;18.40;99.90;;;;;;5094382;28;19927;-72
2023/03/17 13:53:27;;;;;;;;;;;18.40;99.90;;;;;;5124575;28;19926;-70
2023/03/17 13:56:07;;;;;;;;;;;18.50;99.90;;;;;;5123570;28;19920;-71
2023/03/17 13:58:34;;;;;;;;;;;18.50;99.90;;;;;;5119978;28;20253;-70
2023/03/17 14:01:04;;;;;;;;;;;18.60;99.90;;;;;;5123774;28;20267;-70
2023/03/17 14:03:35;;;;;;;;;;;18.60;99.90;;;;;;5119964;28;19979;-71
2023/03/17 14:06:04;;;;;;;;;;;18.60;99.90;;;;;;5120969;28;20137;-70
2023/03/17 14:08:32;;;;;;;;;;;18.70;99.90;;;;;;5106844;28;19920;-70
2023/03/17 14:10:59;;;;;;;;;;;18.70;99.90;;;;;;5119411;28;20104;-70
2023/03/17 14:13:27;;;;;;;;;;;18.80;99.70;;;;;;5126515;28;19982;-70
2023/03/17 14:15:56;;;;;;;;;;;18.80;99.50;;;;;;5126116;28;19957;-69
2023/03/17 14:18:29;;;;;;;;;;;18.70;99.90;;;;;;5125662;28;19919;-70
2023/03/17 14:20:57;;;;;;;;;;;18.70;99.90;;;;;;5126425;28;20003;-70
2023/03/17 14:23:25;;;;;;;;;;;18.80;99.70;;;;;;5121125;28;19987;-70
2023/03/17 14:25:54;;;;;;;;;;;18.80;99.90;;;;;;5107110;28;20131;-71
2023/03/17 14:28:23;;;;;;;;;;;18.80;99.70;;;;;;5119560;28;19934;-71
2023/03/17 14:30:51;;;;;;;;;;;18.90;99.20;;;;;;5126540;28;19984;-68
2023/03/17 14:33:21;;;;;;;;;;;18.70;99.50;;;;;;5124438;28;20303;-69